createdAt,value
2024-02-04T00:01:01.358Z,37.34
2024-02-04T00:02:04.874Z,37.37
2024-02-04T00:03:08.224Z,37.36
2024-02-04T00:04:11.596Z,37.38
2024-02-04T00:05:18.021Z,37.36
2024-02-04T00:06:21.411Z,37.36
2024-02-04T00:07:25.023Z,37.34
2024-02-04T00:08:28.351Z,37.35
2024-02-04T00:09:35.849Z,37.37
2024-02-04T00:10:39.754Z,37.3
2024-02-04T00:11:42.950Z,37.3
2024-02-04T00:12:46.344Z,37.29
2024-02-04T00:13:49.728Z,37.31
2024-02-04T00:14:53.169Z,37.33
2024-02-04T00:15:56.491Z,37.34
2024-02-04T00:16:59.899Z,37.33
2024-02-04T00:18:03.543Z,37.37
2024-02-04T00:19:07.524Z,37.35
2024-02-04T00:20:10.896Z,37.37
2024-02-04T00:21:14.201Z,37.36
2024-02-04T00:22:17.422Z,37.39
2024-02-04T00:23:22.203Z,37.36
2024-02-04T00:24:25.701Z,37.38
2024-02-04T00:25:29.262Z,37.38
2024-02-04T00:26:34.018Z,37.34
2024-02-04T00:27:37.315Z,37.35
2024-02-04T00:28:40.465Z,37.39
2024-02-04T00:29:43.817Z,37.36
2024-02-04T00:30:47.040Z,37.38
2024-02-04T00:31:50.441Z,37.37
2024-02-04T00:32:53.976Z,37.36
2024-02-04T00:33:57.570Z,37.35
2024-02-04T00:35:01.271Z,37.36
2024-02-04T00:36:05.747Z,37.37
2024-02-04T00:37:09.015Z,37.38
2024-02-04T00:38:12.378Z,37.38
2024-02-04T00:39:15.693Z,37.37
2024-02-04T00:40:18.995Z,37.37
2024-02-04T00:41:22.248Z,37.38
2024-02-04T00:42:25.575Z,37.4
2024-02-04T00:43:28.894Z,37.41
2024-02-04T00:44:34.070Z,37.4
2024-02-04T00:45:37.477Z,37.4
2024-02-04T00:46:40.646Z,37.4
2024-02-04T00:47:44.000Z,37.38
2024-02-04T00:48:47.891Z,37.35
2024-02-04T00:49:53.223Z,37.37
2024-02-04T00:50:56.588Z,37.35
2024-02-04T00:52:00.068Z,37.36
2024-02-04T00:53:03.450Z,37.37
2024-02-04T00:54:06.738Z,37.37
2024-02-04T00:55:10.066Z,37.37
2024-02-04T00:56:13.382Z,37.36
2024-02-04T00:57:22.310Z,37.36
2024-02-04T00:58:25.616Z,37.32
2024-02-04T00:59:28.846Z,37.31
2024-02-04T01:00:33.313Z,37.31
2024-02-04T01:01:37.201Z,37.33
2024-02-04T01:02:40.491Z,37.32
2024-02-04T01:03:43.949Z,37.34
2024-02-04T01:04:47.714Z,37.35
2024-02-04T01:05:51.397Z,37.35
2024-02-04T01:07:01.077Z,37.34
2024-02-04T01:08:05.408Z,37.3
2024-02-04T01:09:08.610Z,37.27
2024-02-04T01:10:12.118Z,37.29
2024-02-04T01:11:15.470Z,37.3
2024-02-04T01:12:18.737Z,37.32
2024-02-04T01:13:22.022Z,37.33
2024-02-04T01:14:25.262Z,37.34
2024-02-04T01:15:28.617Z,37.36
2024-02-04T01:16:31.976Z,37.36
2024-02-04T01:17:36.155Z,37.37
2024-02-04T01:18:39.598Z,37.38
2024-02-04T01:19:42.966Z,37.41
2024-02-04T01:20:46.500Z,37.37
2024-02-04T01:21:50.088Z,37.38
2024-02-04T01:22:53.476Z,37.38
2024-02-04T01:23:56.804Z,37.37
2024-02-04T01:25:00.311Z,37.37
2024-02-04T01:26:03.776Z,37.38
2024-02-04T01:27:07.062Z,37.35
2024-02-04T01:28:10.367Z,37.37
2024-02-04T01:29:13.637Z,37.38
2024-02-04T01:30:16.869Z,37.38
2024-02-04T01:31:20.205Z,37.38
2024-02-04T01:32:23.471Z,37.4
2024-02-04T01:33:27.041Z,37.4
2024-02-04T01:34:30.837Z,37.4
2024-02-04T01:35:34.427Z,37.38
2024-02-04T01:36:37.725Z,37.4
2024-02-04T01:37:42.558Z,37.38
2024-02-04T01:38:45.749Z,37.37
2024-02-04T01:39:49.153Z,37.36
2024-02-04T01:40:52.466Z,37.38
2024-02-04T01:41:55.798Z,37.41
2024-02-04T01:42:59.250Z,37.41
2024-02-04T01:44:02.827Z,37.4
2024-02-04T01:45:06.058Z,37.42
2024-02-04T01:46:10.019Z,37.39
2024-02-04T01:47:13.640Z,37.39
2024-02-04T01:48:17.212Z,37.38
2024-02-04T01:49:20.894Z,37.39
2024-02-04T01:50:24.434Z,37.37
2024-02-04T01:51:27.734Z,37.36
2024-02-04T01:52:31.050Z,37.36
2024-02-04T01:53:34.264Z,37.4
2024-02-04T01:54:37.574Z,37.41
2024-02-04T01:55:42.405Z,37.42
2024-02-04T01:56:45.563Z,37.39
2024-02-04T01:57:48.856Z,37.4
2024-02-04T01:58:54.229Z,37.39
2024-02-04T01:59:57.448Z,37.33
2024-02-04T02:01:01.745Z,37.37
2024-02-04T02:02:05.165Z,37.33
2024-02-04T02:03:08.329Z,37.33
2024-02-04T02:04:11.735Z,37.37
2024-02-04T02:05:15.464Z,37.34
2024-02-04T02:06:19.001Z,37.36
2024-02-04T02:07:22.492Z,37.41
2024-02-04T02:08:25.969Z,37.39
2024-02-04T02:09:29.280Z,37.43
2024-02-04T02:10:32.472Z,37.39
2024-02-04T02:11:35.772Z,37.4
2024-02-04T02:12:39.030Z,37.38
2024-02-04T02:13:42.391Z,37.38
2024-02-04T02:14:45.948Z,37.42
2024-02-04T02:15:49.359Z,37.41
2024-02-04T02:16:52.662Z,37.41
2024-02-04T02:17:56.076Z,37.4
2024-02-04T02:19:02.004Z,37.43
2024-02-04T02:20:05.580Z,37.41
2024-02-04T02:21:10.230Z,37.34
2024-02-04T02:22:13.473Z,37.36
2024-02-04T02:23:16.782Z,37.37
2024-02-04T02:24:19.936Z,37.38
2024-02-04T02:25:23.255Z,37.39
2024-02-04T02:26:26.518Z,37.39
2024-02-04T02:27:31.337Z,37.38
2024-02-04T02:28:34.568Z,37.36
2024-02-04T02:29:37.894Z,37.37
2024-02-04T02:30:41.178Z,37.38
2024-02-04T02:31:49.532Z,37.37
2024-02-04T02:32:53.204Z,37.33
2024-02-04T02:33:56.690Z,37.32
2024-02-04T02:35:00.471Z,37.34
2024-02-04T02:36:04.022Z,37.34
2024-02-04T02:37:07.521Z,37.35
2024-02-04T02:38:10.899Z,37.36
2024-02-04T02:39:14.191Z,37.36
2024-02-04T02:40:17.886Z,37.37
2024-02-04T02:41:22.712Z,37.38
2024-02-04T02:42:26.416Z,37.35
2024-02-04T02:43:29.667Z,37.35
2024-02-04T02:44:32.887Z,37.36
2024-02-04T02:45:36.210Z,37.36
2024-02-04T02:46:39.651Z,37.39
2024-02-04T02:47:43.231Z,37.43
2024-02-04T02:48:47.280Z,37.42
2024-02-04T02:49:51.021Z,37.38
2024-02-04T02:50:56.657Z,37.36
2024-02-04T02:51:59.982Z,37.35
2024-02-04T02:53:03.660Z,37.35
2024-02-04T02:54:06.876Z,37.37
2024-02-04T02:55:10.226Z,37.39
2024-02-04T02:56:13.618Z,37.38
2024-02-04T02:57:16.767Z,37.41
2024-02-04T02:58:20.011Z,37.4
2024-02-04T02:59:23.251Z,37.39
2024-02-04T03:00:26.550Z,37.43
2024-02-04T03:01:30.117Z,37.4
2024-02-04T03:02:33.589Z,37.43
2024-02-04T03:03:37.038Z,37.45
2024-02-04T03:04:40.642Z,37.44
2024-02-04T03:05:44.227Z,37.43
2024-02-04T03:06:47.760Z,37.42
2024-02-04T03:07:51.201Z,37.44
2024-02-04T03:08:54.529Z,37.44
2024-02-04T03:09:57.879Z,37.39
2024-02-04T03:11:01.372Z,37.4
2024-02-04T03:12:04.950Z,37.39
2024-02-04T03:13:09.317Z,37.41
2024-02-04T03:14:12.671Z,37.38
2024-02-04T03:15:16.074Z,37.4
2024-02-04T03:16:19.393Z,37.37
2024-02-04T03:17:22.676Z,37.38
2024-02-04T03:18:26.438Z,37.4
2024-02-04T03:19:29.897Z,37.38
2024-02-04T03:20:33.196Z,37.38
2024-02-04T03:21:36.609Z,37.43
2024-02-04T03:22:41.857Z,37.4
2024-02-04T03:23:45.041Z,37.38
2024-02-04T03:24:48.426Z,37.42
2024-02-04T03:25:51.710Z,37.42
2024-02-04T03:26:54.988Z,37.41
2024-02-04T03:27:58.251Z,37.4
2024-02-04T03:29:01.688Z,37.44
2024-02-04T03:30:04.998Z,37.43
2024-02-04T03:31:08.915Z,37.41
2024-02-04T03:32:12.274Z,37.4
2024-02-04T03:33:15.733Z,37.42
2024-02-04T03:34:19.456Z,37.47
2024-02-04T03:35:23.116Z,37.41
2024-02-04T03:36:26.414Z,37.41
2024-02-04T03:37:29.845Z,37.42
2024-02-04T03:38:34.580Z,37.42
2024-02-04T03:39:37.870Z,37.39
2024-02-04T03:40:41.284Z,37.37
2024-02-04T03:41:44.543Z,37.42
2024-02-04T03:42:47.906Z,37.39
2024-02-04T03:43:51.179Z,37.37
2024-02-04T03:44:54.429Z,37.38
2024-02-04T03:45:57.721Z,37.37
2024-02-04T03:47:01.048Z,37.42
2024-02-04T03:48:04.530Z,37.42
2024-02-04T03:49:08.159Z,37.45
2024-02-04T03:50:11.663Z,37.4
2024-02-04T03:51:14.927Z,37.41
2024-02-04T03:52:18.192Z,37.45
2024-02-04T03:53:21.461Z,37.47
2024-02-04T03:54:24.704Z,37.4
2024-02-04T03:55:27.982Z,37.42
2024-02-04T03:56:31.298Z,37.41
2024-02-04T03:57:34.617Z,37.43
2024-02-04T03:58:37.794Z,37.42
2024-02-04T03:59:41.007Z,37.42
2024-02-04T04:00:44.346Z,37.43
2024-02-04T04:01:47.708Z,37.44
2024-02-04T04:02:51.156Z,37.47
2024-02-04T04:03:54.515Z,37.45
2024-02-04T04:04:58.992Z,37.45
2024-02-04T04:06:02.514Z,37.44
2024-02-04T04:07:06.255Z,37.44
2024-02-04T04:08:09.704Z,37.4
2024-02-04T04:09:12.953Z,37.4
2024-02-04T04:10:16.153Z,37.41
2024-02-04T04:11:19.479Z,37.41
2024-02-04T04:12:22.848Z,37.41
2024-02-04T04:13:26.215Z,37.43
2024-02-04T04:14:29.392Z,37.43
2024-02-04T04:15:32.640Z,37.43
2024-02-04T04:16:36.208Z,37.43
2024-02-04T04:17:39.461Z,37.43
2024-02-04T04:18:42.963Z,37.42
2024-02-04T04:19:48.239Z,37.48
2024-02-04T04:20:51.568Z,37.42
2024-02-04T04:21:54.969Z,37.4
2024-02-04T04:22:58.314Z,37.44
2024-02-04T04:24:01.652Z,37.47
2024-02-04T04:25:05.148Z,37.45
2024-02-04T04:26:08.497Z,37.46
2024-02-04T04:27:11.762Z,37.44
2024-02-04T04:28:15.072Z,37.43
2024-02-04T04:29:18.354Z,37.43
2024-02-04T04:30:21.589Z,37.43
2024-02-04T04:31:24.903Z,37.42
2024-02-04T04:32:28.717Z,37.44
2024-02-04T04:33:32.156Z,37.45
2024-02-04T04:34:35.560Z,37.42
2024-02-04T04:35:38.763Z,37.42
2024-02-04T04:36:42.012Z,37.4
2024-02-04T04:37:45.351Z,37.4
2024-02-04T04:38:48.601Z,37.42
2024-02-04T04:39:51.894Z,37.4
2024-02-04T04:40:55.272Z,37.39
2024-02-04T04:41:58.513Z,37.39
2024-02-04T04:43:01.856Z,37.46
2024-02-04T04:44:05.314Z,37.46
2024-02-04T04:45:08.535Z,37.45
2024-02-04T04:46:11.929Z,37.44
2024-02-04T04:47:15.302Z,37.42
2024-02-04T04:48:18.892Z,37.44
2024-02-04T04:49:22.720Z,37.46
2024-02-04T04:50:26.248Z,37.46
2024-02-04T04:51:29.562Z,37.4
2024-02-04T04:52:32.954Z,37.42
2024-02-04T04:53:36.102Z,37.41
2024-02-04T04:54:39.325Z,37.46
2024-02-04T04:55:42.879Z,37.42
2024-02-04T04:56:46.126Z,37.41
2024-02-04T04:57:49.428Z,37.42
2024-02-04T04:58:52.974Z,37.4
2024-02-04T04:59:56.703Z,37.4
2024-02-04T05:01:00.014Z,37.39
2024-02-04T05:02:03.636Z,37.42
2024-02-04T05:03:07.090Z,37.42
2024-02-04T05:04:10.595Z,37.45
2024-02-04T05:05:14.194Z,37.4
2024-02-04T05:06:17.517Z,37.43
2024-02-04T05:07:21.139Z,37.42
2024-02-04T05:08:24.576Z,37.44
2024-02-04T05:09:27.916Z,37.44
2024-02-04T05:10:31.067Z,37.44
2024-02-04T05:11:34.301Z,37.44
2024-02-04T05:12:37.888Z,37.46
2024-02-04T05:13:41.412Z,37.42
2024-02-04T05:14:44.622Z,37.43
2024-02-04T05:15:48.095Z,37.44
2024-02-04T05:16:51.443Z,37.46
2024-02-04T05:17:54.942Z,37.48
2024-02-04T05:18:58.613Z,37.44
2024-02-04T05:20:02.313Z,37.46
2024-02-04T05:21:05.750Z,37.45
2024-02-04T05:22:09.085Z,37.42
2024-02-04T05:23:12.369Z,37.42
2024-02-04T05:24:17.573Z,37.42
2024-02-04T05:25:20.800Z,37.44
2024-02-04T05:26:24.071Z,37.43
2024-02-04T05:27:27.866Z,37.43
2024-02-04T05:28:31.139Z,37.47
2024-02-04T05:29:34.388Z,37.46
2024-02-04T05:30:37.604Z,37.44
2024-02-04T05:31:41.172Z,37.43
2024-02-04T05:32:44.477Z,37.42
2024-02-04T05:33:47.870Z,37.43
2024-02-04T05:34:51.812Z,37.4
2024-02-04T05:35:55.228Z,37.47
2024-02-04T05:36:58.637Z,37.42
2024-02-04T05:38:01.987Z,37.44
2024-02-04T05:39:05.241Z,37.45
2024-02-04T05:40:08.685Z,37.46
2024-02-04T05:41:12.226Z,37.43
2024-02-04T05:42:15.475Z,37.44
2024-02-04T05:43:18.956Z,37.42
2024-02-04T05:44:22.347Z,37.45
2024-02-04T05:45:25.822Z,37.48
2024-02-04T05:46:29.565Z,37.44
2024-02-04T05:47:33.381Z,37.39
2024-02-04T05:48:37.407Z,37.41
2024-02-04T05:49:40.909Z,37.43
2024-02-04T05:50:44.680Z,37.42
2024-02-04T05:51:48.121Z,37.43
2024-02-04T05:52:51.468Z,37.43
2024-02-04T05:53:54.653Z,37.43
2024-02-04T05:55:03.283Z,37.5
2024-02-04T05:56:08.888Z,37.39
2024-02-04T05:57:12.103Z,37.38
2024-02-04T05:58:15.459Z,37.4
2024-02-04T05:59:18.820Z,37.37
2024-02-04T06:00:22.063Z,37.38
2024-02-04T06:01:25.253Z,37.41
2024-02-04T06:02:28.639Z,37.39
2024-02-04T06:03:32.323Z,37.42
2024-02-04T06:04:35.953Z,37.42
2024-02-04T06:05:39.295Z,37.43
2024-02-04T06:06:42.653Z,37.43
2024-02-04T06:07:46.009Z,37.41
2024-02-04T06:08:49.252Z,37.46
2024-02-04T06:09:52.532Z,37.48
2024-02-04T06:10:55.880Z,37.46
2024-02-04T06:11:59.213Z,37.46
2024-02-04T06:13:02.534Z,37.46
2024-02-04T06:14:05.942Z,37.46
2024-02-04T06:15:09.213Z,37.47
2024-02-04T06:16:12.581Z,37.44
2024-02-04T06:17:15.859Z,37.45
2024-02-04T06:18:19.124Z,37.45
2024-02-04T06:19:22.611Z,37.44
2024-02-04T06:20:26.196Z,37.43
2024-02-04T06:21:29.484Z,37.46
2024-02-04T06:22:32.795Z,37.46
2024-02-04T06:23:36.454Z,37.42
2024-02-04T06:24:39.813Z,37.44
2024-02-04T06:25:43.368Z,37.45
2024-02-04T06:26:47.029Z,37.43
2024-02-04T06:27:50.559Z,37.42
2024-02-04T06:28:54.234Z,37.48
2024-02-04T06:29:58.056Z,37.45
2024-02-04T06:31:02.893Z,37.43
2024-02-04T06:32:06.180Z,37.46
2024-02-04T06:33:09.883Z,37.39
2024-02-04T06:34:13.360Z,37.44
2024-02-04T06:35:16.810Z,37.43
2024-02-04T06:36:20.066Z,37.42
2024-02-04T06:37:23.462Z,37.42
2024-02-04T06:38:26.858Z,37.46
2024-02-04T06:39:30.109Z,37.42
2024-02-04T06:40:35.766Z,37.42
2024-02-04T06:41:38.930Z,37.42
2024-02-04T06:42:42.357Z,37.41
2024-02-04T06:43:47.406Z,37.42
2024-02-04T06:44:52.619Z,37.38
2024-02-04T06:45:58.101Z,37.36
2024-02-04T06:47:01.345Z,37.35
2024-02-04T06:48:04.783Z,37.34
2024-02-04T06:49:08.336Z,37.39
2024-02-04T06:50:11.913Z,37.4
2024-02-04T06:51:15.344Z,37.46
2024-02-04T06:52:18.794Z,37.41
2024-02-04T06:53:22.116Z,37.41
2024-02-04T06:54:25.462Z,37.46
2024-02-04T06:55:28.688Z,37.44
2024-02-04T06:56:31.905Z,37.46
2024-02-04T06:57:36.206Z,37.43
2024-02-04T06:58:39.361Z,37.46
2024-02-04T06:59:42.643Z,37.44
2024-02-04T07:00:46.053Z,37.46
2024-02-04T07:01:49.633Z,37.45
2024-02-04T07:02:53.216Z,37.46
2024-02-04T07:03:56.852Z,37.44
2024-02-04T07:05:00.242Z,37.41
2024-02-04T07:06:03.626Z,37.42
2024-02-04T07:07:07.300Z,37.42
2024-02-04T07:08:11.183Z,37.42
2024-02-04T07:09:14.450Z,37.45
2024-02-04T07:10:17.812Z,37.44
2024-02-04T07:11:21.194Z,37.43
2024-02-04T07:12:24.570Z,37.47
2024-02-04T07:13:27.723Z,37.47
2024-02-04T07:14:30.954Z,37.46
2024-02-04T07:15:34.250Z,37.49
2024-02-04T07:16:37.462Z,37.5
2024-02-04T07:17:40.685Z,37.48
2024-02-04T07:18:44.269Z,37.46
2024-02-04T07:19:47.866Z,37.45
2024-02-04T07:20:51.284Z,37.49
2024-02-04T07:21:54.559Z,37.51
2024-02-04T07:22:59.540Z,37.48
2024-02-04T07:24:02.817Z,37.49
2024-02-04T07:25:06.486Z,37.47
2024-02-04T07:26:09.935Z,37.46
2024-02-04T07:27:13.202Z,37.44
2024-02-04T07:28:16.589Z,37.44
2024-02-04T07:29:19.834Z,37.44
2024-02-04T07:30:23.065Z,37.48
2024-02-04T07:31:26.302Z,37.51
2024-02-04T07:32:29.552Z,37.49
2024-02-04T07:33:33.788Z,37.49
2024-02-04T07:34:39.436Z,37.47
2024-02-04T07:35:42.710Z,37.47
2024-02-04T07:36:45.862Z,37.42
2024-02-04T07:37:49.193Z,37.44
2024-02-04T07:38:56.638Z,37.42
2024-02-04T07:40:00.034Z,37.43
2024-02-04T07:41:03.481Z,37.43
2024-02-04T07:42:06.805Z,37.42
2024-02-04T07:43:10.376Z,37.4
2024-02-04T07:44:13.833Z,37.46
2024-02-04T07:45:17.122Z,37.49
2024-02-04T07:46:20.418Z,37.47
2024-02-04T07:47:23.735Z,37.45
2024-02-04T07:48:27.167Z,37.46
2024-02-04T07:49:30.588Z,37.47
2024-02-04T07:50:34.028Z,37.46
2024-02-04T07:51:37.198Z,37.47
2024-02-04T07:52:45.061Z,37.46
2024-02-04T07:53:48.671Z,37.4
2024-02-04T07:54:52.022Z,37.42
2024-02-04T07:55:55.365Z,37.4
2024-02-04T07:56:58.617Z,37.42
2024-02-04T07:58:01.907Z,37.46
2024-02-04T07:59:05.842Z,37.44
2024-02-04T08:00:09.114Z,37.44
2024-02-04T08:01:12.560Z,37.43
2024-02-04T08:02:16.057Z,37.43
2024-02-04T08:03:19.464Z,37.48
2024-02-04T08:04:23.299Z,37.46
2024-02-04T08:05:26.741Z,37.46
2024-02-04T08:06:30.143Z,37.45
2024-02-04T08:07:33.737Z,37.45
2024-02-04T08:08:36.942Z,37.45
2024-02-04T08:09:40.328Z,37.47
2024-02-04T08:10:43.971Z,37.46
2024-02-04T08:11:47.371Z,37.47
2024-02-04T08:12:52.396Z,37.49
2024-02-04T08:13:55.723Z,37.44
2024-02-04T08:14:58.911Z,37.44
2024-02-04T08:16:02.232Z,37.48
2024-02-04T08:17:05.579Z,37.47
2024-02-04T08:18:09.220Z,37.47
2024-02-04T08:19:12.718Z,37.46
2024-02-04T08:20:16.362Z,37.5
2024-02-04T08:21:19.788Z,37.48
2024-02-04T08:22:23.016Z,37.49
2024-02-04T08:23:26.242Z,37.49
2024-02-04T08:24:29.472Z,37.46
2024-02-04T08:25:32.834Z,37.49
2024-02-04T08:26:36.075Z,37.46
2024-02-04T08:27:39.432Z,37.49
2024-02-04T08:28:42.926Z,37.49
2024-02-04T08:29:46.172Z,37.51
2024-02-04T08:30:49.452Z,37.53
2024-02-04T08:31:52.980Z,37.52
2024-02-04T08:32:56.353Z,37.51
2024-02-04T08:33:59.892Z,37.47
2024-02-04T08:35:03.790Z,37.51
2024-02-04T08:36:07.370Z,37.5
2024-02-04T08:37:10.909Z,37.49
2024-02-04T08:38:14.215Z,37.49
2024-02-04T08:39:17.456Z,37.49
2024-02-04T08:40:20.777Z,37.5
2024-02-04T08:41:24.088Z,37.5
2024-02-04T08:42:27.422Z,37.54
2024-02-04T08:43:30.621Z,37.49
2024-02-04T08:44:39.619Z,37.52
2024-02-04T08:45:43.561Z,37.47
2024-02-04T08:46:46.748Z,37.46
2024-02-04T08:47:50.069Z,37.42
2024-02-04T08:48:53.637Z,37.44
2024-02-04T08:49:57.166Z,37.44
2024-02-04T08:51:00.704Z,37.48
2024-02-04T08:52:05.654Z,37.46
2024-02-04T08:53:09.116Z,37.44
2024-02-04T08:54:12.359Z,37.42
2024-02-04T08:55:15.717Z,37.44
2024-02-04T08:56:19.058Z,37.46
2024-02-04T08:57:22.352Z,37.49
2024-02-04T08:58:25.727Z,37.44
2024-02-04T08:59:28.843Z,37.48
2024-02-04T09:00:32.135Z,37.49
2024-02-04T09:01:35.846Z,37.55
2024-02-04T09:02:39.078Z,37.52
2024-02-04T09:03:42.544Z,37.52
2024-02-04T09:04:46.242Z,37.5
2024-02-04T09:05:49.559Z,37.5
2024-02-04T09:06:52.996Z,37.49
2024-02-04T09:07:56.591Z,37.49
2024-02-04T09:09:00.011Z,37.5
2024-02-04T09:10:03.592Z,37.49
2024-02-04T09:11:07.150Z,37.49
2024-02-04T09:12:10.668Z,37.52
2024-02-04T09:13:14.294Z,37.5
2024-02-04T09:14:17.890Z,37.5
2024-02-04T09:15:21.225Z,37.49
2024-02-04T09:16:25.052Z,37.5
2024-02-04T09:17:28.367Z,37.52
2024-02-04T09:18:31.976Z,37.52
2024-02-04T09:19:42.609Z,37.49
2024-02-04T09:20:46.583Z,37.44
2024-02-04T09:21:52.143Z,37.38
2024-02-04T09:22:55.701Z,37.39
2024-02-04T09:23:59.105Z,37.38
2024-02-04T09:25:02.951Z,37.38
2024-02-04T09:26:06.545Z,37.43
2024-02-04T09:27:09.986Z,37.46
2024-02-04T09:28:13.380Z,37.42
2024-02-04T09:29:16.961Z,37.43
2024-02-04T09:30:20.451Z,37.45
2024-02-04T09:31:24.220Z,37.44
2024-02-04T09:32:27.917Z,37.47
2024-02-04T09:33:31.959Z,37.46
2024-02-04T09:34:37.729Z,37.44
2024-02-04T09:35:41.418Z,37.41
2024-02-04T09:36:45.137Z,37.42
2024-02-04T09:37:48.775Z,37.42
2024-02-04T09:38:52.423Z,37.42
2024-02-04T09:39:56.072Z,37.43
2024-02-04T09:40:59.798Z,37.42
2024-02-04T09:42:03.280Z,37.43
2024-02-04T09:43:08.953Z,37.46
2024-02-04T09:44:19.296Z,37.42
2024-02-04T09:45:22.959Z,37.35
2024-02-04T09:46:26.316Z,37.35
2024-02-04T09:47:29.792Z,37.4
2024-02-04T09:48:33.697Z,37.38
2024-02-04T09:49:37.487Z,37.38
2024-02-04T09:50:41.075Z,37.39
2024-02-04T09:51:46.803Z,37.42
2024-02-04T09:52:53.532Z,37.4
2024-02-04T09:53:57.133Z,37.41
2024-02-04T09:55:00.713Z,37.38
2024-02-04T09:56:04.433Z,37.38
2024-02-04T09:57:07.707Z,37.39
2024-02-04T09:58:11.220Z,37.41
2024-02-04T09:59:16.884Z,37.46
2024-02-04T10:00:20.364Z,37.45
2024-02-04T10:01:24.215Z,37.41
2024-02-04T10:02:27.887Z,37.46
2024-02-04T10:03:31.681Z,37.43
2024-02-04T10:04:35.603Z,37.44
2024-02-04T10:05:39.218Z,37.43
2024-02-04T10:06:43.123Z,37.44
2024-02-04T10:07:47.269Z,37.42
2024-02-04T10:08:56.839Z,37.46
2024-02-04T10:10:00.685Z,37.38
2024-02-04T10:11:04.316Z,37.41
2024-02-04T10:12:07.856Z,37.4
2024-02-04T10:13:12.712Z,37.43
2024-02-04T10:14:18.666Z,37.39
2024-02-04T10:15:21.943Z,37.41
2024-02-04T10:16:25.137Z,37.43
2024-02-04T10:17:30.624Z,37.43
2024-02-04T10:18:33.948Z,37.4
2024-02-04T10:19:37.558Z,37.41
2024-02-04T10:20:40.946Z,37.43
2024-02-04T10:21:44.292Z,37.42
2024-02-04T10:22:49.677Z,37.44
2024-02-04T10:23:52.973Z,37.43
2024-02-04T10:24:56.353Z,37.46
2024-02-04T10:25:59.718Z,37.45
2024-02-04T10:27:05.817Z,37.41
2024-02-04T10:28:09.101Z,37.48
2024-02-04T10:29:12.471Z,37.46
2024-02-04T10:30:15.719Z,37.48
2024-02-04T10:31:19.215Z,37.48
2024-02-04T10:32:26.117Z,37.47
2024-02-04T10:33:31.694Z,37.47
2024-02-04T10:34:35.077Z,37.44
2024-02-04T10:35:38.326Z,37.42
2024-02-04T10:36:41.625Z,37.39
2024-02-04T10:37:44.914Z,37.44
2024-02-04T10:38:50.094Z,37.45
2024-02-04T10:39:53.386Z,37.4
2024-02-04T10:40:58.711Z,37.41
2024-02-04T10:42:01.904Z,37.39
2024-02-04T10:43:05.696Z,37.4
2024-02-04T10:44:09.046Z,37.43
2024-02-04T10:45:12.394Z,37.42
2024-02-04T10:46:16.124Z,37.43
2024-02-04T10:47:19.492Z,37.44
2024-02-04T10:48:22.678Z,37.43
2024-02-04T10:49:26.208Z,37.48
2024-02-04T10:50:29.559Z,37.46
2024-02-04T10:51:35.910Z,37.49
2024-02-04T10:52:39.021Z,37.46
2024-02-04T10:53:42.231Z,37.46
2024-02-04T10:54:45.561Z,37.47
2024-02-04T10:55:48.956Z,37.5
2024-02-04T10:56:52.318Z,37.54
2024-02-04T10:57:55.672Z,37.49
2024-02-04T10:58:58.919Z,37.51
2024-02-04T11:00:02.129Z,37.49
2024-02-04T11:01:05.538Z,37.51
2024-02-04T11:02:09.138Z,37.49
2024-02-04T11:03:12.589Z,37.49
2024-02-04T11:04:16.280Z,37.51
2024-02-04T11:05:19.988Z,37.49
2024-02-04T11:06:23.474Z,37.5
2024-02-04T11:07:26.845Z,37.55
2024-02-04T11:08:30.287Z,37.54
2024-02-04T11:09:33.936Z,37.53
2024-02-04T11:10:37.167Z,37.53
2024-02-04T11:11:40.361Z,37.51
2024-02-04T11:12:45.771Z,37.48
2024-02-04T11:13:49.002Z,37.5
2024-02-04T11:14:52.252Z,37.47
2024-02-04T11:15:55.673Z,37.47
2024-02-04T11:16:58.957Z,37.49
2024-02-04T11:18:02.372Z,37.49
2024-02-04T11:19:07.982Z,37.51
2024-02-04T11:20:11.479Z,37.46
2024-02-04T11:21:14.974Z,37.44
2024-02-04T11:22:18.164Z,37.47
2024-02-04T11:23:21.368Z,37.46
2024-02-04T11:24:24.607Z,37.48
2024-02-04T11:25:27.781Z,37.48
2024-02-04T11:26:31.021Z,37.5
2024-02-04T11:27:35.882Z,37.48
2024-02-04T11:28:39.184Z,37.48
2024-02-04T11:29:42.417Z,37.46
2024-02-04T11:30:47.979Z,37.46
2024-02-04T11:31:52.079Z,37.47
2024-02-04T11:32:55.923Z,37.44
2024-02-04T11:34:00.053Z,37.44
2024-02-04T11:35:04.316Z,37.43
2024-02-04T11:36:08.503Z,37.45
2024-02-04T11:37:12.677Z,37.49
2024-02-04T11:38:16.144Z,37.43
2024-02-04T11:39:19.643Z,37.42
2024-02-04T11:40:23.252Z,37.47
2024-02-04T11:41:26.618Z,37.49
2024-02-04T11:42:30.186Z,37.45
2024-02-04T11:43:33.965Z,37.5
2024-02-04T11:44:37.337Z,37.49
2024-02-04T11:45:40.880Z,37.51
2024-02-04T11:46:44.788Z,37.53
2024-02-04T11:47:48.419Z,37.54
2024-02-04T11:48:52.336Z,37.5
2024-02-04T11:49:56.433Z,37.53
2024-02-04T11:51:00.345Z,37.49
2024-02-04T11:52:04.018Z,37.48
2024-02-04T11:53:08.619Z,37.48
2024-02-04T11:54:11.913Z,37.43
2024-02-04T11:55:15.592Z,37.48
2024-02-04T11:56:19.148Z,37.46
2024-02-04T11:57:22.657Z,37.5
2024-02-04T11:58:26.015Z,37.48
2024-02-04T11:59:29.421Z,37.51
2024-02-04T12:00:32.660Z,37.53
2024-02-04T12:01:36.226Z,37.53
2024-02-04T12:02:39.766Z,37.51
2024-02-04T12:03:43.272Z,37.48
2024-02-04T12:04:46.722Z,37.46
2024-02-04T12:05:50.028Z,37.48
2024-02-04T12:06:53.497Z,37.49
2024-02-04T12:07:57.150Z,37.48
2024-02-04T12:09:00.718Z,37.48
2024-02-04T12:10:04.429Z,37.48
2024-02-04T12:11:07.808Z,37.49
2024-02-04T12:12:10.983Z,37.49
2024-02-04T12:13:14.293Z,37.47
2024-02-04T12:14:17.908Z,37.51
2024-02-04T12:15:21.174Z,37.5
2024-02-04T12:16:24.408Z,37.48
2024-02-04T12:17:27.578Z,37.51
2024-02-04T12:18:31.161Z,37.52
2024-02-04T12:19:34.620Z,37.53
2024-02-04T12:20:38.041Z,37.56
2024-02-04T12:21:41.305Z,37.55
2024-02-04T12:22:44.451Z,37.52
2024-02-04T12:23:49.179Z,37.51
2024-02-04T12:24:52.709Z,37.49
2024-02-04T12:25:56.075Z,37.5
2024-02-04T12:26:59.334Z,37.48
2024-02-04T12:28:02.706Z,37.48
2024-02-04T12:29:06.185Z,37.52
2024-02-04T12:30:09.422Z,37.54
2024-02-04T12:31:12.969Z,37.51
2024-02-04T12:32:16.473Z,37.52
2024-02-04T12:33:20.121Z,37.51
2024-02-04T12:34:23.719Z,37.51
2024-02-04T12:35:26.976Z,37.51
2024-02-04T12:36:30.282Z,37.51
2024-02-04T12:37:35.706Z,37.53
2024-02-04T12:38:40.310Z,37.55
2024-02-04T12:39:43.485Z,37.5
2024-02-04T12:40:46.995Z,37.45
2024-02-04T12:41:50.237Z,37.51
2024-02-04T12:42:53.646Z,37.51
2024-02-04T12:43:56.972Z,37.49
2024-02-04T12:45:00.177Z,37.45
2024-02-04T12:46:03.610Z,37.51
2024-02-04T12:47:07.044Z,37.48
2024-02-04T12:48:10.450Z,37.51
2024-02-04T12:49:13.964Z,37.51
2024-02-04T12:50:17.533Z,37.49
2024-02-04T12:51:20.966Z,37.52
2024-02-04T12:52:24.181Z,37.5
2024-02-04T12:53:27.343Z,37.5
2024-02-04T12:54:30.496Z,37.52
2024-02-04T12:55:33.787Z,37.49
2024-02-04T12:56:37.061Z,37.55
2024-02-04T12:57:40.748Z,37.54
2024-02-04T12:58:44.096Z,37.52
2024-02-04T12:59:47.316Z,37.51
2024-02-04T13:00:50.741Z,37.54
2024-02-04T13:01:54.370Z,37.51
2024-02-04T13:03:03.762Z,37.53
2024-02-04T13:04:08.690Z,37.42
2024-02-04T13:05:12.226Z,37.43
2024-02-04T13:06:15.621Z,37.45
2024-02-04T13:07:19.316Z,37.49
2024-02-04T13:08:23.261Z,37.48
2024-02-04T13:09:26.506Z,37.45
2024-02-04T13:10:29.725Z,37.48
2024-02-04T13:11:34.447Z,37.5
2024-02-04T13:12:37.819Z,37.51
2024-02-04T13:13:41.135Z,37.47
2024-02-04T13:14:44.402Z,37.52
2024-02-04T13:15:47.720Z,37.49
2024-02-04T13:16:51.064Z,37.5
2024-02-04T13:17:54.456Z,37.53
2024-02-04T13:18:57.884Z,37.5
2024-02-04T13:20:01.554Z,37.49
2024-02-04T13:21:05.089Z,37.51
2024-02-04T13:22:08.872Z,37.51
2024-02-04T13:23:12.319Z,37.54
2024-02-04T13:24:17.216Z,37.53
2024-02-04T13:25:20.608Z,37.51
2024-02-04T13:26:24.302Z,37.51
2024-02-04T13:27:27.542Z,37.49
2024-02-04T13:28:30.877Z,37.49
2024-02-04T13:29:34.129Z,37.51
2024-02-04T13:30:37.548Z,37.52
2024-02-04T13:31:41.197Z,37.54
2024-02-04T13:32:44.908Z,37.51
2024-02-04T13:33:48.574Z,37.53
2024-02-04T13:35:02.827Z,37.49
2024-02-04T13:36:09.885Z,37.38
2024-02-04T13:37:13.437Z,37.34
2024-02-04T13:38:16.835Z,37.44
2024-02-04T13:39:20.090Z,37.41
2024-02-04T13:40:23.357Z,37.44
2024-02-04T13:41:26.573Z,37.49
2024-02-04T13:42:31.347Z,37.5
2024-02-04T13:43:34.695Z,37.46